Terminal Aerodrome Forecast
Issued by NWS

Home | Current Version | Previous Version | Text Only | Print | Product List | Glossary On
Versions: 1 2 3 4 5 6 7 8 9 10 11 12 13 14 15 16 17 18 19 20 21 22 23
000
FTUS42 KMHX 030523
TAFOAJ
TAF
KOAJ 030523Z 0306/0406 20005KT P6SM SCT250
     FM030800 20005KT 5SM BR BKN100
     FM031200 21005KT P6SM VCSH SCT050 OVC100
     FM031600 21010KT P6SM VCTS OVC050CB
     FM040000 21005KT P6SM VCSH OVC050
      AMD LTD TO CLD VIS AND WIND=

USA.gov is the U.S. government's official web portal to all federal, state and local government web resources and services.